Tyronza, Arkansas
Current Conditions -  °F | °C
As of 5:34 AM on Friday 24 Oct 2014 (Local Time) from KAWM Reporting Station
Haze Haze  
Wind Chill: 41°   Ceiling: 300
Heat Index: 41°   Visibility: 3mi
Dew Point: 41°   Wind: 0mph
Humidity: 100%   Direction: NA
Pressure: 30.13"   Gusts: NA
Location:  35.49°N, 90.36°W
Report Text: KAWM 241034Z AUTO 00000KT 3SM BR BKN003 05/05 A3013 RMK AO2 T00500050
Loading
Personal Weather Stations






























Interactive Weather Map
Tropical Storm Tracking
New forecast layout! Learn more

10-Day Weather Forecast

Advertisements
Track Severe Weather on mobile